Date,TemperatureHighF,TemperatureAvgF,TemperatureLowF,DewpointHighF,DewpointAvgF,DewpointLowF,HumidityHigh,HumidityAvg,HumidityLow,PressureMaxIn,PressureMinIn,WindSpeedMaxMPH,WindSpeedAvgMPH,GustSpeedMaxMPH,PrecipitationSumIn
2013-10-1,77.1,56.7,46.2,57.0,51.4,45.0,100,86,48,29.57,29.40,8,1,8,0.00
2013-10-2,76.8,61.1,51.6,64.0,55.5,52.0,100,85,50,29.53,29.38,14,2,14,0.00
2013-10-3,76.8,58.5,47.8,63.0,50.6,44.0,100,80,35,29.66,29.52,7,1,7,0.00
2013-10-4,66.2,54.2,44.9,56.0,50.3,44.0,100,88,63,29.68,29.58,8,1,8,0.00
2013-10-5,63.4,58.4,55.9,56.0,52.6,50.0,93,82,66,29.70,29.61,7,1,7,0.00
2013-10-6,57.2,51.7,48.1,54.0,46.3,41.0,98,83,61,29.78,29.67,12,2,12,0.17
2013-10-7,70.5,58.2,50.8,66.0,56.7,50.0,100,95,85,29.68,29.21,29,2,35,0.60
2013-10-8,61.4,50.8,37.9,53.0,42.2,33.0,100,77,37,29.95,29.46,16,2,18,0.00
2013-10-9,66.2,44.9,35.1,48.0,39.1,35.0,100,84,43,30.06,29.91,10,1,10,0.00
2013-10-10,62.7,46.7,38.1,50.0,42.7,37.0,100,88,52,29.92,29.74,9,1,9,0.00
2013-10-11,68.0,51.2,43.3,56.0,46.8,42.0,99,87,58,29.76,29.67,5,1,5,0.00
2013-10-12,61.2,50.0,40.1,56.0,47.1,40.0,100,91,77,29.95,29.75,13,1,13,0.00
2013-10-13,64.6,51.4,41.8,53.0,45.6,41.0,100,83,53,30.00,29.90,13,1,13,0.00
2013-10-14,62.8,52.9,42.2,53.0,48.3,41.0,98,85,63,29.93,29.77,10,1,10,0.00
2013-10-15,64.7,57.8,53.2,56.0,53.4,51.0,97,86,70,29.83,29.70,7,1,7,0.00
2013-10-16,65.5,55.7,48.8,54.0,50.4,48.0,97,84,61,29.70,29.41,11,1,12,0.00
2013-10-17,69.9,57.1,50.0,59.0,48.9,44.0,98,77,42,29.42,29.25,12,1,12,0.11
2013-10-18,61.6,53.6,44.9,56.0,47.6,36.0,100,82,56,29.45,29.15,13,2,17,0.50
2013-10-19,63.4,49.6,36.3,51.0,41.4,35.0,99,76,49,29.51,29.25,13,2,15,0.00
2013-10-20,56.9,49.5,36.7,48.0,38.2,32.0,96,68,40,29.55,29.20,19,3,21,0.03
2013-10-21,63.1,46.0,33.1,47.0,39.3,33.0,99,80,45,29.65,29.46,15,1,15,0.00
2013-10-22,55.8,48.8,35.3,48.0,41.7,31.0,90,77,62,29.47,29.26,14,3,15,0.00
2013-10-23,52.2,40.5,31.9,39.0,33.9,31.0,97,78,49,29.33,29.15,8,1,8,0.00
2013-10-24,47.4,40.6,30.2,37.0,31.5,28.0,96,71,47,29.41,29.20,23,3,23,0.01
2013-10-25,45.4,36.9,30.8,40.0,29.8,24.0,99,77,44,29.66,29.41,18,2,21,0.00
2013-10-26,47.3,38.9,28.5,36.0,30.2,26.0,94,73,45,29.67,29.36,18,2,19,0.00
2013-10-27,52.3,41.0,29.4,38.0,31.6,26.0,91,71,40,29.58,29.31,15,2,21,0.00
2013-10-28,50.7,36.9,27.5,37.0,29.3,23.0,94,74,51,29.90,29.57,23,2,25,0.00
2013-10-29,47.9,31.0,20.1,35.0,22.7,16.0,98,73,30,30.01,29.89,8,1,8,0.00
2013-10-30,48.7,34.6,26.4,37.0,28.3,21.0,94,78,54,29.90,29.73,12,1,12,0.00
2013-10-31,57.1,41.2,29.5,56.0,40.0,29.0,98,96,91,29.78,29.24,15,2,16,0.21